createdAt,value
2023-03-06T00:01:30.156Z,7.72
2023-03-06T00:03:57.910Z,6.45
2023-03-06T00:06:25.885Z,7.53
2023-03-06T00:08:54.175Z,6.30
2023-03-06T00:11:21.948Z,7.15
2023-03-06T00:13:53.328Z,8.60
2023-03-06T00:16:21.097Z,5.78
2023-03-06T00:18:49.099Z,8.00
2023-03-06T00:21:16.878Z,8.23
2023-03-06T00:23:44.606Z,12.75
2023-03-06T00:26:12.700Z,7.80
2023-03-06T00:28:40.695Z,6.88
2023-03-06T00:31:10.100Z,7.00
2023-03-06T00:33:37.851Z,10.00
2023-03-06T00:36:06.147Z,8.40
2023-03-06T00:38:35.557Z,8.35
2023-03-06T00:41:07.404Z,9.75
2023-03-06T00:43:35.176Z,7.20
2023-03-06T00:46:03.354Z,7.68
2023-03-06T00:48:32.468Z,8.60
2023-03-06T00:51:00.345Z,11.65
2023-03-06T00:53:28.131Z,8.95
2023-03-06T00:55:55.858Z,8.82
2023-03-06T00:58:23.627Z,10.75
2023-03-06T01:00:51.763Z,12.70
2023-03-06T01:03:19.505Z,10.75
2023-03-06T01:05:48.629Z,13.18
2023-03-06T01:08:16.374Z,10.95
2023-03-06T01:10:44.257Z,14.57
2023-03-06T01:13:12.038Z,12.57
2023-03-06T01:15:39.785Z,17.70
2023-03-06T01:18:07.553Z,14.45
2023-03-06T01:20:35.328Z,11.88
2023-03-06T01:23:04.385Z,14.50
2023-03-06T01:25:32.158Z,14.63
2023-03-06T01:27:59.891Z,11.57
2023-03-06T01:30:27.653Z,12.88
2023-03-06T01:32:55.421Z,12.07
2023-03-06T01:35:23.426Z,16.95
2023-03-06T01:37:51.460Z,14.90
2023-03-06T01:40:20.553Z,15.15
2023-03-06T01:42:49.372Z,13.07
2023-03-06T01:45:35.671Z,18.02
2023-03-06T01:48:03.645Z,14.35
2023-03-06T01:50:31.371Z,18.25
2023-03-06T01:53:00.376Z,15.63
2023-03-06T01:55:32.093Z,16.38
2023-03-06T01:58:01.569Z,16.50
2023-03-06T02:00:29.923Z,23.48
2023-03-06T02:02:58.901Z,18.23
2023-03-06T02:05:26.717Z,15.05
2023-03-06T02:07:55.469Z,17.23
2023-03-06T02:10:23.255Z,15.48
2023-03-06T02:12:53.018Z,19.65
2023-03-06T02:15:23.104Z,16.40
2023-03-06T02:17:51.725Z,18.02
2023-03-06T02:20:21.782Z,18.48
2023-03-06T02:22:53.373Z,19.92
2023-03-06T02:25:27.194Z,23.20
2023-03-06T02:27:55.173Z,22.08
2023-03-06T02:30:23.466Z,24.90
2023-03-06T02:32:51.225Z,21.75
2023-03-06T02:35:20.093Z,23.95
2023-03-06T02:37:47.935Z,21.15
2023-03-06T02:40:16.990Z,21.13
2023-03-06T02:42:49.697Z,29.10
2023-03-06T02:45:20.244Z,19.33
2023-03-06T02:47:48.345Z,19.98
2023-03-06T02:50:16.119Z,23.17
2023-03-06T02:52:43.869Z,21.10
2023-03-06T02:55:12.010Z,19.45
2023-03-06T02:57:39.767Z,23.20
2023-03-06T03:00:09.919Z,19.45
2023-03-06T03:02:38.256Z,19.25
2023-03-06T03:05:06.585Z,25.75
2023-03-06T03:07:34.675Z,17.55
2023-03-06T03:10:02.448Z,21.05
2023-03-06T03:12:30.225Z,20.83
2023-03-06T03:14:58.101Z,24.10
2023-03-06T03:17:27.226Z,21.77
2023-03-06T03:19:55.331Z,28.77
2023-03-06T03:22:23.196Z,26.27
2023-03-06T03:24:51.351Z,28.90
2023-03-06T03:27:19.127Z,23.85
2023-03-06T03:29:47.284Z,25.30
2023-03-06T03:32:15.045Z,26.20
2023-03-06T03:34:44.253Z,27.23
2023-03-06T03:37:12.348Z,22.45
2023-03-06T03:39:40.103Z,21.85
2023-03-06T03:42:08.289Z,29.55
2023-03-06T03:44:36.423Z,25.15
2023-03-06T03:47:04.321Z,24.70
2023-03-06T03:49:32.048Z,27.35
2023-03-06T03:52:01.461Z,23.67
2023-03-06T03:54:29.191Z,28.52
2023-03-06T03:56:56.919Z,25.88
2023-03-06T03:59:24.928Z,25.38
2023-03-06T04:01:56.001Z,24.23
2023-03-06T04:04:23.880Z,31.00
2023-03-06T04:06:51.911Z,31.90
2023-03-06T04:09:20.968Z,26.25
2023-03-06T04:11:49.068Z,27.90
2023-03-06T04:14:16.998Z,26.70
2023-03-06T04:16:45.044Z,29.48
2023-03-06T04:19:12.796Z,29.27
2023-03-06T04:21:40.590Z,32.53
2023-03-06T04:24:08.725Z,39.88
2023-03-06T04:26:38.018Z,33.85
2023-03-06T04:29:05.917Z,33.90
2023-03-06T04:31:33.743Z,34.22
2023-03-06T04:34:01.891Z,30.73
2023-03-06T04:36:30.519Z,29.95
2023-03-06T04:38:58.612Z,31.70
2023-03-06T04:41:26.370Z,33.13
2023-03-06T04:43:56.057Z,29.90
2023-03-06T04:46:23.844Z,30.13
2023-03-06T04:48:51.852Z,36.50
2023-03-06T04:51:19.792Z,31.85
2023-03-06T04:53:47.865Z,30.45
2023-03-06T04:56:15.816Z,33.40
2023-03-06T04:58:44.726Z,37.38
2023-03-06T05:01:13.876Z,30.80
2023-03-06T05:03:41.835Z,33.60
2023-03-06T05:06:10.005Z,32.17
2023-03-06T05:08:37.742Z,34.45
2023-03-06T05:11:05.654Z,28.10
2023-03-06T05:13:33.421Z,32.42
2023-03-06T05:16:04.571Z,32.97
2023-03-06T05:18:34.292Z,31.88
2023-03-06T05:21:02.629Z,29.83
2023-03-06T05:23:31.228Z,31.60
2023-03-06T05:25:59.869Z,36.90
2023-03-06T05:28:28.648Z,32.75
2023-03-06T05:30:56.469Z,29.77
2023-03-06T05:33:24.561Z,33.03
2023-03-06T05:35:53.716Z,35.00
2023-03-06T05:38:23.118Z,36.65
2023-03-06T05:40:50.960Z,28.65
2023-03-06T05:43:18.810Z,29.13
2023-03-06T05:45:46.993Z,34.97
2023-03-06T05:48:14.828Z,36.70
2023-03-06T05:50:42.591Z,32.95
2023-03-06T05:53:11.718Z,33.55
2023-03-06T05:55:39.888Z,32.25
2023-03-06T05:58:07.882Z,29.80
2023-03-06T06:00:35.622Z,32.45
2023-03-06T06:03:03.433Z,30.50
2023-03-06T06:05:31.468Z,29.55
2023-03-06T06:07:59.242Z,31.77
2023-03-06T06:10:28.379Z,34.00
2023-03-06T06:12:56.145Z,36.65
2023-03-06T06:15:23.955Z,32.88
2023-03-06T06:17:51.817Z,34.83
2023-03-06T06:20:19.882Z,31.77
2023-03-06T06:22:48.110Z,35.83
2023-03-06T06:25:16.253Z,29.58
2023-03-06T06:27:45.576Z,29.10
2023-03-06T06:30:13.875Z,25.33
2023-03-06T06:32:41.936Z,30.17
2023-03-06T06:35:10.625Z,30.85
2023-03-06T06:37:38.371Z,32.15
2023-03-06T06:40:06.868Z,29.08
2023-03-06T06:42:39.845Z,29.38
2023-03-06T06:45:10.931Z,30.23
2023-03-06T06:47:41.578Z,27.35
2023-03-06T06:50:11.647Z,33.15
2023-03-06T06:52:39.644Z,34.35
2023-03-06T06:55:08.053Z,27.38
2023-03-06T06:57:36.118Z,26.40
2023-03-06T07:00:04.732Z,28.33
2023-03-06T07:02:34.049Z,27.70
2023-03-06T07:05:05.141Z,29.58
2023-03-06T07:07:34.901Z,31.13
2023-03-06T07:10:03.134Z,29.65
2023-03-06T07:12:32.829Z,32.78
2023-03-06T07:15:00.605Z,28.20
2023-03-06T07:17:28.428Z,32.80
2023-03-06T07:19:57.522Z,33.03
2023-03-06T07:22:25.321Z,33.08
2023-03-06T07:24:53.122Z,32.78
2023-03-06T07:27:22.900Z,38.05
2023-03-06T07:29:50.692Z,36.42
2023-03-06T07:32:18.878Z,38.75
2023-03-06T07:34:46.932Z,36.33
2023-03-06T07:37:16.121Z,38.30
2023-03-06T07:39:43.999Z,39.50
2023-03-06T07:42:13.091Z,37.00
2023-03-06T07:44:41.094Z,32.22
2023-03-06T07:47:08.951Z,38.17
2023-03-06T07:49:36.923Z,38.90
2023-03-06T07:52:04.779Z,34.75
2023-03-06T07:54:35.219Z,38.22
2023-03-06T07:57:03.223Z,35.00
2023-03-06T07:59:31.006Z,35.70
2023-03-06T08:01:58.994Z,31.38
2023-03-06T08:04:28.974Z,33.10
2023-03-06T08:06:57.558Z,34.05
2023-03-06T08:09:25.414Z,36.33
2023-03-06T08:11:54.494Z,35.85
2023-03-06T08:14:22.766Z,36.72
2023-03-06T08:16:51.262Z,37.65
2023-03-06T08:19:19.093Z,38.17
2023-03-06T08:21:47.244Z,35.83
2023-03-06T08:24:17.038Z,33.65
2023-03-06T08:26:44.886Z,36.03
2023-03-06T08:29:15.649Z,33.65
2023-03-06T08:31:44.480Z,35.10
2023-03-06T08:34:13.734Z,37.80
2023-03-06T08:36:41.653Z,32.20
2023-03-06T08:39:09.838Z,33.65
2023-03-06T08:41:38.011Z,37.50
2023-03-06T08:44:06.424Z,40.33
2023-03-06T08:46:35.914Z,36.78
2023-03-06T08:49:04.224Z,38.00
2023-03-06T08:51:32.405Z,34.60
2023-03-06T08:54:00.447Z,32.40
2023-03-06T08:56:29.235Z,34.47
2023-03-06T08:58:57.832Z,38.03
2023-03-06T09:01:26.428Z,34.80
2023-03-06T09:03:56.494Z,33.80
2023-03-06T09:06:24.315Z,33.08
2023-03-06T09:08:52.434Z,36.03
2023-03-06T09:11:20.504Z,34.80
2023-03-06T09:13:48.276Z,43.10
2023-03-06T09:16:16.441Z,39.20
2023-03-06T09:18:44.237Z,37.47
2023-03-06T09:21:13.540Z,31.30
2023-03-06T09:23:41.746Z,31.33
2023-03-06T09:26:09.532Z,33.97
2023-03-06T09:28:38.930Z,36.00
2023-03-06T09:31:08.637Z,33.53
2023-03-06T09:33:36.413Z,34.15
2023-03-06T09:36:04.732Z,32.75
2023-03-06T09:38:34.278Z,37.45
2023-03-06T09:43:36.416Z,32.05
2023-03-06T09:46:08.261Z,32.22
2023-03-06T09:48:39.936Z,36.13
2023-03-06T09:51:10.362Z,35.25
2023-03-06T09:53:46.824Z,32.08
2023-03-06T09:56:16.489Z,37.30
2023-03-06T09:58:47.248Z,33.10
2023-03-06T10:01:17.406Z,31.70
2023-03-06T10:03:49.134Z,30.52
2023-03-06T10:06:17.820Z,30.90
2023-03-06T10:08:50.118Z,32.35
2023-03-06T10:11:20.755Z,29.42
2023-03-06T10:13:51.028Z,30.42
2023-03-06T10:16:27.871Z,29.17
2023-03-06T10:18:56.174Z,29.63
2023-03-06T10:21:34.899Z,30.80
2023-03-06T10:24:10.365Z,30.23
2023-03-06T10:26:41.307Z,36.03
2023-03-06T10:29:28.349Z,40.53
2023-03-06T10:31:59.087Z,39.03
2023-03-06T10:34:30.165Z,44.63
2023-03-06T10:36:59.343Z,38.30
2023-03-06T10:39:30.504Z,38.58
2023-03-06T10:41:58.642Z,35.67
2023-03-06T10:44:26.440Z,34.67
2023-03-06T10:46:54.803Z,32.35
2023-03-06T10:49:24.665Z,32.45
2023-03-06T10:51:57.249Z,29.08
2023-03-06T10:54:25.302Z,32.28
2023-03-06T10:56:54.470Z,30.42
2023-03-06T10:59:25.580Z,33.35
2023-03-06T11:01:54.745Z,36.05
2023-03-06T11:04:24.816Z,31.15
2023-03-06T11:07:11.426Z,29.63
2023-03-06T11:09:39.527Z,32.67
2023-03-06T11:12:22.336Z,29.17
2023-03-06T11:15:07.958Z,31.13
2023-03-06T11:17:36.917Z,27.73
2023-03-06T11:20:18.247Z,29.85
2023-03-06T11:22:49.225Z,26.48
2023-03-06T11:25:18.764Z,22.08
2023-03-06T11:27:50.377Z,25.73
2023-03-06T11:30:19.920Z,30.17
2023-03-06T11:32:52.688Z,27.08
2023-03-06T11:35:23.071Z,28.55
2023-03-06T11:37:54.044Z,25.50
2023-03-06T11:40:32.724Z,20.48
2023-03-06T11:43:05.368Z,24.10
2023-03-06T11:45:37.373Z,25.88
2023-03-06T11:48:15.407Z,21.08
2023-03-06T11:50:44.831Z,22.92
2023-03-06T11:53:13.514Z,20.67
2023-03-06T11:55:44.329Z,23.70
2023-03-06T11:58:22.053Z,19.88
2023-03-06T12:00:53.255Z,22.80
2023-03-06T12:03:36.991Z,20.17
2023-03-06T12:06:05.684Z,25.33
2023-03-06T12:08:39.413Z,24.05
2023-03-06T12:11:11.143Z,25.65
2023-03-06T12:13:44.974Z,23.58
2023-03-06T12:16:27.024Z,27.05
2023-03-06T12:19:00.118Z,26.92
2023-03-06T12:24:01.174Z,23.95
2023-03-06T12:26:43.140Z,21.95
2023-03-06T12:29:18.267Z,26.13
2023-03-06T12:31:54.349Z,26.63
2023-03-06T12:34:28.884Z,26.88
2023-03-06T12:37:02.155Z,25.25
2023-03-06T12:39:35.981Z,28.60
2023-03-06T12:42:11.503Z,24.05
2023-03-06T12:44:53.543Z,23.92
2023-03-06T12:47:22.583Z,24.02
2023-03-06T12:49:52.997Z,25.30
2023-03-06T12:52:29.653Z,25.13
2023-03-06T12:54:58.420Z,27.33
2023-03-06T12:57:26.925Z,24.88
2023-03-06T12:59:56.019Z,24.70
2023-03-06T13:02:31.695Z,25.92
2023-03-06T13:05:05.740Z,23.92
2023-03-06T13:07:38.922Z,27.45
2023-03-06T13:10:09.669Z,20.45
2023-03-06T13:12:41.774Z,20.92
2023-03-06T13:15:30.216Z,24.43
2023-03-06T13:17:59.452Z,25.05
2023-03-06T13:20:35.349Z,25.63
2023-03-06T13:23:21.784Z,24.65
2023-03-06T13:25:50.778Z,22.48
2023-03-06T13:28:26.109Z,19.50
2023-03-06T13:30:53.967Z,16.52
2023-03-06T13:33:40.226Z,15.90
2023-03-06T13:36:26.229Z,14.43
2023-03-06T13:39:02.794Z,18.17
2023-03-06T13:41:38.745Z,13.85
2023-03-06T13:44:34.618Z,16.13
2023-03-06T13:47:03.994Z,16.13
2023-03-06T13:49:32.058Z,18.70
2023-03-06T13:52:09.529Z,15.05
2023-03-06T13:54:44.248Z,17.67
2023-03-06T13:57:24.780Z,17.05
2023-03-06T14:00:14.439Z,10.30
2023-03-06T14:02:54.657Z,9.68
2023-03-06T14:05:22.984Z,12.10
2023-03-06T14:08:03.280Z,11.85
2023-03-06T14:10:33.564Z,11.45
2023-03-06T14:13:03.772Z,11.98
2023-03-06T14:15:37.156Z,18.02
2023-03-06T14:18:05.963Z,14.57
2023-03-06T14:20:34.915Z,15.65
2023-03-06T14:23:17.562Z,12.95
2023-03-06T14:25:46.583Z,14.65
2023-03-06T14:28:22.837Z,14.10
2023-03-06T14:30:51.334Z,12.77
2023-03-06T14:33:27.096Z,17.10
2023-03-06T14:35:56.636Z,15.35
2023-03-06T14:38:26.027Z,14.98
2023-03-06T14:40:53.824Z,14.10
2023-03-06T14:43:22.975Z,18.20
2023-03-06T14:45:51.514Z,13.52
2023-03-06T14:48:19.603Z,13.82
2023-03-06T14:50:49.006Z,11.73
2023-03-06T14:53:18.255Z,13.48
2023-03-06T14:55:50.155Z,16.50
2023-03-06T14:58:20.874Z,16.52
2023-03-06T15:00:50.449Z,13.57
2023-03-06T15:03:20.401Z,12.45
2023-03-06T15:05:48.536Z,9.35
2023-03-06T15:08:19.187Z,10.73
2023-03-06T15:10:57.474Z,12.30
2023-03-06T15:13:26.275Z,9.95
2023-03-06T15:15:57.751Z,11.80
2023-03-06T15:18:30.015Z,12.88
2023-03-06T15:21:07.964Z,11.02
2023-03-06T15:23:37.193Z,8.00
2023-03-06T15:26:19.581Z,11.88
2023-03-06T15:29:00.014Z,10.27
2023-03-06T15:31:35.333Z,9.30
2023-03-06T15:34:25.556Z,11.13
2023-03-06T15:36:55.471Z,11.65
2023-03-06T15:39:27.714Z,13.38
2023-03-06T15:41:58.929Z,13.95
2023-03-06T15:44:26.837Z,11.73
2023-03-06T15:47:06.658Z,15.35
2023-03-06T15:49:37.424Z,13.95
2023-03-06T15:52:05.417Z,15.45
2023-03-06T15:54:33.262Z,14.75
2023-03-06T15:57:04.205Z,11.98
2023-03-06T15:59:33.133Z,12.85
2023-03-06T16:02:01.438Z,12.68
2023-03-06T16:04:31.933Z,12.55
2023-03-06T16:07:00.002Z,15.77
2023-03-06T16:09:27.952Z,15.20
2023-03-06T16:11:55.914Z,16.75
2023-03-06T16:14:25.134Z,11.30
2023-03-06T16:16:54.350Z,10.75
2023-03-06T16:19:26.520Z,9.75
2023-03-06T16:21:55.288Z,10.57
2023-03-06T16:24:23.066Z,13.80
2023-03-06T16:26:51.731Z,15.23
2023-03-06T16:29:20.055Z,14.13
2023-03-06T16:31:49.296Z,12.32
2023-03-06T16:34:19.638Z,16.55
2023-03-06T16:36:48.188Z,12.18
2023-03-06T16:39:16.797Z,16.45
2023-03-06T16:41:45.872Z,15.57
2023-03-06T16:44:13.816Z,14.60
2023-03-06T16:46:42.898Z,14.90
2023-03-06T16:49:14.340Z,18.10
2023-03-06T16:51:42.151Z,12.52
2023-03-06T16:54:10.329Z,11.15
2023-03-06T16:56:38.114Z,8.90
2023-03-06T16:59:08.989Z,10.52
2023-03-06T17:01:37.385Z,12.05
2023-03-06T17:04:05.591Z,10.88
2023-03-06T17:06:34.766Z,12.02
2023-03-06T17:09:02.831Z,21.98
2023-03-06T17:11:30.862Z,15.60
2023-03-06T17:13:58.949Z,16.95
2023-03-06T17:16:28.992Z,17.95
2023-03-06T17:19:02.813Z,14.38
2023-03-06T17:21:35.512Z,13.70
2023-03-06T17:24:05.711Z,15.52
2023-03-06T17:26:34.066Z,13.15
2023-03-06T17:29:01.990Z,16.67
2023-03-06T17:31:30.318Z,14.93
2023-03-06T17:34:00.518Z,12.55
2023-03-06T17:36:28.694Z,12.35
2023-03-06T17:38:57.339Z,15.77
2023-03-06T17:41:26.557Z,15.15
2023-03-06T17:43:56.609Z,19.27
2023-03-06T17:46:24.817Z,17.95
2023-03-06T17:48:53.184Z,16.13
2023-03-06T17:51:24.066Z,15.80
2023-03-06T17:53:52.344Z,14.07
2023-03-06T17:56:23.362Z,13.93
2023-03-06T17:58:52.824Z,13.95
2023-03-06T18:01:22.256Z,14.95
2023-03-06T18:03:50.958Z,18.60
2023-03-06T18:06:19.606Z,17.77
2023-03-06T18:08:52.816Z,18.25
2023-03-06T18:11:21.671Z,14.77
2023-03-06T18:13:50.348Z,15.95
2023-03-06T18:16:21.361Z,17.30
2023-03-06T18:22:12.098Z,16.73
2023-03-06T18:24:40.168Z,15.35
2023-03-06T18:27:12.484Z,14.93
2023-03-06T18:29:45.769Z,15.73
2023-03-06T18:32:15.246Z,14.93
2023-03-06T18:34:43.504Z,15.32
2023-03-06T18:37:11.557Z,16.73
2023-03-06T18:39:39.642Z,15.43
2023-03-06T18:42:08.097Z,13.68
2023-03-06T18:44:36.160Z,12.50
2023-03-06T18:47:04.558Z,12.98
2023-03-06T18:49:34.088Z,15.48
2023-03-06T18:52:02.107Z,14.27
2023-03-06T18:54:30.172Z,14.73
2023-03-06T18:56:58.303Z,18.13
2023-03-06T18:59:26.540Z,17.40
2023-03-06T19:01:57.746Z,19.10
2023-03-06T19:04:26.134Z,23.58
2023-03-06T19:06:55.905Z,22.45
2023-03-06T19:09:24.268Z,19.80
2023-03-06T19:11:54.445Z,19.83
2023-03-06T19:14:22.757Z,15.77
2023-03-06T19:16:50.746Z,18.13
2023-03-06T19:19:18.759Z,15.30
2023-03-06T19:21:46.610Z,18.83
2023-03-06T19:24:15.716Z,17.27
2023-03-06T19:26:43.579Z,16.10
2023-03-06T19:29:11.529Z,13.88
2023-03-06T19:31:39.576Z,13.77
2023-03-06T19:34:07.322Z,14.85
2023-03-06T19:36:35.483Z,14.63
2023-03-06T19:39:04.470Z,17.08
2023-03-06T19:41:34.355Z,16.55
2023-03-06T19:44:03.361Z,15.45
2023-03-06T19:46:31.996Z,16.65
2023-03-06T19:49:00.339Z,16.73
2023-03-06T19:51:28.331Z,14.80
2023-03-06T19:53:56.793Z,18.17
2023-03-06T19:56:26.794Z,17.50
2023-03-06T19:58:55.914Z,18.67
2023-03-06T20:01:24.845Z,17.83
2023-03-06T20:03:58.372Z,19.20
2023-03-06T20:06:27.143Z,17.67
2023-03-06T20:08:54.922Z,20.55
2023-03-06T20:11:23.536Z,21.15
2023-03-06T20:13:51.880Z,21.88
2023-03-06T20:16:21.139Z,19.35
2023-03-06T20:18:48.885Z,19.45
2023-03-06T20:21:16.749Z,22.00
2023-03-06T20:23:44.472Z,20.20
2023-03-06T20:26:13.289Z,22.77
2023-03-06T20:28:41.805Z,18.73
2023-03-06T20:31:10.521Z,18.45
2023-03-06T20:33:39.698Z,25.35
2023-03-06T20:36:12.993Z,24.17
2023-03-06T20:38:41.006Z,26.23
2023-03-06T20:41:14.093Z,22.83
2023-03-06T20:43:41.921Z,24.50
2023-03-06T20:46:11.210Z,21.65
2023-03-06T20:48:40.669Z,22.83
2023-03-06T20:51:16.503Z,25.85
2023-03-06T20:53:44.498Z,27.58
2023-03-06T20:56:12.516Z,25.00
2023-03-06T20:58:40.456Z,23.35
2023-03-06T21:01:08.430Z,25.65
2023-03-06T21:03:36.658Z,23.35
2023-03-06T21:06:05.903Z,29.60
2023-03-06T21:08:36.382Z,32.40
2023-03-06T21:11:04.199Z,26.70
2023-03-06T21:13:31.946Z,31.45
2023-03-06T21:16:00.064Z,29.98
2023-03-06T21:18:28.231Z,34.50
2023-03-06T21:20:55.988Z,31.83
2023-03-06T21:23:25.300Z,29.48
2023-03-06T21:25:53.433Z,30.23
2023-03-06T21:28:21.235Z,30.52
2023-03-06T21:30:49.024Z,29.27
2023-03-06T21:33:16.902Z,31.63
2023-03-06T21:35:45.962Z,31.75
2023-03-06T21:38:14.477Z,34.33
2023-03-06T21:40:45.429Z,30.63
2023-03-06T21:43:13.497Z,30.67
2023-03-06T21:45:44.098Z,32.30
2023-03-06T21:48:11.857Z,33.78
2023-03-06T21:50:39.876Z,32.97
2023-03-06T21:53:08.013Z,29.75
2023-03-06T21:55:38.850Z,35.55
2023-03-06T21:58:08.223Z,38.47
2023-03-06T22:00:36.760Z,38.72
2023-03-06T22:03:04.950Z,39.97
2023-03-06T22:05:32.700Z,42.65
2023-03-06T22:08:00.450Z,37.22
2023-03-06T22:10:28.422Z,35.22
2023-03-06T22:12:56.454Z,35.78
2023-03-06T22:15:25.540Z,38.90
2023-03-06T22:17:53.655Z,32.17
2023-03-06T22:20:21.769Z,35.05
2023-03-06T22:22:49.729Z,39.65
2023-03-06T22:25:17.596Z,38.45
2023-03-06T22:27:45.551Z,39.95
2023-03-06T22:30:13.471Z,44.35
2023-03-06T22:32:42.909Z,40.38
2023-03-06T22:35:10.842Z,35.88
2023-03-06T22:37:38.796Z,42.08
2023-03-06T22:40:07.310Z,35.50
2023-03-06T22:42:35.705Z,37.85
2023-03-06T22:45:03.483Z,41.65
2023-03-06T22:47:31.447Z,46.22
2023-03-06T22:50:00.535Z,44.20
2023-03-06T22:52:28.569Z,40.60
2023-03-06T22:54:56.709Z,40.20
2023-03-06T22:57:24.430Z,39.25
2023-03-06T22:59:52.419Z,41.15
2023-03-06T23:02:20.154Z,40.55
2023-03-06T23:04:52.357Z,40.80
2023-03-06T23:07:21.702Z,40.58
2023-03-06T23:09:49.484Z,40.38
2023-03-06T23:12:17.236Z,44.30
2023-03-06T23:14:49.862Z,46.55
2023-03-06T23:17:18.052Z,39.97
2023-03-06T23:19:46.154Z,43.53
2023-03-06T23:22:14.404Z,35.83
2023-03-06T23:24:43.505Z,39.70
2023-03-06T23:27:11.914Z,34.67
2023-03-06T23:29:39.677Z,41.70
2023-03-06T23:32:08.109Z,41.55
2023-03-06T23:34:36.115Z,40.47
2023-03-06T23:37:04.094Z,39.03
2023-03-06T23:39:32.146Z,43.22
2023-03-06T23:42:01.353Z,43.15
2023-03-06T23:44:29.428Z,36.55
2023-03-06T23:46:57.158Z,37.25
2023-03-06T23:49:25.188Z,37.80
2023-03-06T23:51:53.140Z,39.10
2023-03-06T23:54:20.902Z,40.75
2023-03-06T23:56:48.624Z,40.40
2023-03-06T23:59:18.044Z,43.83
